sensor_id;sensor_type;location;lat;lon;timestamp;pressure;altitude;pressure_sealevel;temperature
68342;BMP280;55668;52.310;21.066;2023-10-19T00:05:42;100390.0;;;2.2
68342;BMP280;55668;52.310;21.066;2023-10-19T00:32:23;100350.0;;;2.3
68342;BMP280;55668;52.310;21.066;2023-10-19T00:48:41;100350.0;;;2.1
68342;BMP280;55668;52.310;21.066;2023-10-19T01:04:31;100330.0;;;2.0
68342;BMP280;55668;52.310;21.066;2023-10-19T01:18:01;100310.0;;;1.9
68342;BMP280;55668;52.310;21.066;2023-10-19T01:36:30;100300.0;;;1.7
68342;BMP280;55668;52.310;21.066;2023-10-19T01:49:14;100290.0;;;1.8
68342;BMP280;55668;52.310;21.066;2023-10-19T02:05:08;100260.0;;;1.7
68342;BMP280;55668;52.310;21.066;2023-10-19T02:19:45;100260.0;;;1.5
68342;BMP280;55668;52.310;21.066;2023-10-19T02:35:24;100250.0;;;1.3
68342;BMP280;55668;52.310;21.066;2023-10-19T04:23:12;100120.0;;;1.4
68342;BMP280;55668;52.310;21.066;2023-10-19T04:38:26;100100.0;;;1.3
68342;BMP280;55668;52.310;21.066;2023-10-19T05:24:03;100080.0;;;1.4
68342;BMP280;55668;52.310;21.066;2023-10-19T05:39:25;100090.0;;;1.5
68342;BMP280;55668;52.310;21.066;2023-10-19T05:54:55;100080.0;;;1.8
68342;BMP280;55668;52.310;21.066;2023-10-19T06:10:11;100070.0;;;2.1
68342;BMP280;55668;52.310;21.066;2023-10-19T06:25:30;100060.0;;;2.7
68342;BMP280;55668;52.310;21.066;2023-10-19T06:43:13;100060.0;;;3.3
68342;BMP280;55668;52.310;21.066;2023-10-19T06:56:17;100050.0;;;3.7
68342;BMP280;55668;52.310;21.066;2023-10-19T07:11:41;100040.0;;;4.6
68342;BMP280;55668;52.310;21.066;2023-10-19T07:27:57;100010.0;;;7.2
68342;BMP280;55668;52.310;21.066;2023-10-19T07:42:17;99980.0;;;6.8
68342;BMP280;55668;52.310;21.066;2023-10-19T07:57:49;99980.0;;;6.7
68342;BMP280;55668;52.310;21.066;2023-10-19T08:13:37;99960.0;;;7.0
68342;BMP280;55668;52.310;21.066;2023-10-19T08:28:42;99940.0;;;7.5
68342;BMP280;55668;52.310;21.066;2023-10-19T08:44:54;99910.0;;;8.1
68342;BMP280;55668;52.310;21.066;2023-10-19T08:59:55;99890.0;;;8.8
68342;BMP280;55668;52.310;21.066;2023-10-19T09:16:42;99850.0;;;9.3
68342;BMP280;55668;52.310;21.066;2023-10-19T09:29:55;99850.0;;;9.9
68342;BMP280;55668;52.310;21.066;2023-10-19T09:46:10;99790.0;;;10.3
68342;BMP280;55668;52.310;21.066;2023-10-19T10:02:59;99740.0;;;10.5
68342;BMP280;55668;52.310;21.066;2023-10-19T10:16:22;99740.0;;;10.7
68342;BMP280;55668;52.310;21.066;2023-10-19T10:31:27;99710.0;;;10.9
68342;BMP280;55668;52.310;21.066;2023-10-19T10:47:15;99690.0;;;10.8
68342;BMP280;55668;52.310;21.066;2023-10-19T11:02:43;99670.0;;;11.0
68342;BMP280;55668;52.310;21.066;2023-10-19T11:18:38;99630.0;;;10.8
68342;BMP280;55668;52.310;21.066;2023-10-19T11:33:05;99600.0;;;11.2
68342;BMP280;55668;52.310;21.066;2023-10-19T12:03:53;99560.0;;;11.1
68342;BMP280;55668;52.310;21.066;2023-10-19T12:20:22;99590.0;;;11.2
68342;BMP280;55668;52.310;21.066;2023-10-19T12:34:35;99580.0;;;11.3
68342;BMP280;55668;52.310;21.066;2023-10-19T12:50:57;99530.0;;;11.4
68342;BMP280;55668;52.310;21.066;2023-10-19T13:05:12;99510.0;;;11.2
68342;BMP280;55668;52.310;21.066;2023-10-19T13:21:54;99520.0;;;10.9
68342;BMP280;55668;52.310;21.066;2023-10-19T13:38:00;99500.0;;;10.7
68342;BMP280;55668;52.310;21.066;2023-10-19T13:53:11;99480.0;;;10.6
68342;BMP280;55668;52.310;21.066;2023-10-19T14:22:03;99460.0;;;10.4
68342;BMP280;55668;52.310;21.066;2023-10-19T14:38:08;99440.0;;;10.3
68342;BMP280;55668;52.310;21.066;2023-10-19T15:08:30;99390.0;;;10.1
68342;BMP280;55668;52.310;21.066;2023-10-19T15:23:54;99390.0;;;9.9
68342;BMP280;55668;52.310;21.066;2023-10-19T15:54:22;99380.0;;;9.8
68342;BMP280;55668;52.310;21.066;2023-10-19T16:10:30;99370.0;;;9.7
68342;BMP280;55668;52.310;21.066;2023-10-19T16:24:53;99350.0;;;9.5
68342;BMP280;55668;52.310;21.066;2023-10-19T16:40:24;99340.0;;;9.4
68342;BMP280;55668;52.310;21.066;2023-10-19T16:57:38;99340.0;;;9.3
68342;BMP280;55668;52.310;21.066;2023-10-19T17:27:35;99310.0;;;9.2
68342;BMP280;55668;52.310;21.066;2023-10-19T17:57:29;99320.0;;;9.1
68342;BMP280;55668;52.310;21.066;2023-10-19T18:28:23;99310.0;;;9.0
68342;BMP280;55668;52.310;21.066;2023-10-19T19:30:42;99260.0;;;8.8
68342;BMP280;55668;52.310;21.066;2023-10-19T19:45:21;99240.0;;;8.6
68342;BMP280;55668;52.310;21.066;2023-10-19T20:01:12;99250.0;;;8.2
68342;BMP280;55668;52.310;21.066;2023-10-19T20:15:43;99230.0;;;8.0
68342;BMP280;55668;52.310;21.066;2023-10-19T20:31:28;99210.0;;;7.9
68342;BMP280;55668;52.310;21.066;2023-10-19T20:49:42;99190.0;;;7.8
68342;BMP280;55668;52.310;21.066;2023-10-19T21:02:55;99170.0;;;7.7
68342;BMP280;55668;52.310;21.066;2023-10-19T21:50:06;99110.0;;;7.6
68342;BMP280;55668;52.310;21.066;2023-10-19T22:49:29;99060.0;;;7.5
68342;BMP280;55668;52.310;21.066;2023-10-19T23:35:28;99030.0;;;7.4
68342;BMP280;55668;52.310;21.066;2023-10-19T23:53:25;99040.0;;;7.5
